Time;durP1;ratioP1;P1;durP2;ratioP2;P2;SDS_P1;SDS_P2;PMS_P1;PMS_P2;Temp;Humidity;BMP_temperature;BMP_pressure;BME280_temperature;BME280_humidity;BME280_pressure;Samples;Min_cycle;Max_cycle;Signal;HPM_P1;HPM_P2
2023/09/05 14:01:31;;;;;;;6.38;5.20;;;;;;;;;;6242255;22;20039;-83
2023/09/05 14:03:57;;;;;;;7.40;5.30;;;;;;;;;;6218097;23;20016;-83
2023/09/05 14:06:25;;;;;;;8.18;5.60;;;;;;;;;;6245143;23;20102;-83
2023/09/05 14:08:51;;;;;;;8.80;5.57;;;;;;;;;;6217936;23;20016;-83
2023/09/05 14:11:17;;;;;;;6.55;5.18;;;;;;;;;;6218872;23;20020;-83
2023/09/05 14:13:43;;;;;;;12.95;5.88;;;;;;;;;;6193346;23;20020;-83
2023/09/05 14:16:10;;;;;;;6.25;4.90;;;;;;;;;;6218433;23;20763;-83
2023/09/05 14:18:36;;;;;;;6.10;4.43;;;;;;;;;;6218440;23;20020;-83
2023/09/05 14:21:04;;;;;;;6.85;4.53;;;;;;;;;;6218147;23;20016;-83
2023/09/05 14:23:30;;;;;;;6.78;4.38;;;;;;;;;;6245358;23;20012;-83
2023/09/05 14:25:56;;;;;;;7.38;4.72;;;;;;;;;;6217539;23;20348;-83
2023/09/05 14:28:24;;;;;;;6.53;4.72;;;;;;;;;;6217462;23;20137;-83
2023/09/05 14:30:50;;;;;;;7.30;4.32;;;;;;;;;;6218682;23;20072;-83
2023/09/05 14:33:16;;;;;;;6.80;4.20;;;;;;;;;;6218209;23;20016;-83
2023/09/05 14:35:42;;;;;;;7.05;4.75;;;;;;;;;;6243971;23;20486;-83
2023/09/05 14:38:08;;;;;;;6.68;5.05;;;;;;;;;;6217810;23;20032;-83
2023/09/05 14:40:35;;;;;;;8.13;4.55;;;;;;;;;;6244444;23;20466;-83
2023/09/05 14:43:01;;;;;;;6.07;5.05;;;;;;;;;;6244939;23;20027;-83
2023/09/05 14:45:28;;;;;;;9.43;4.65;;;;;;;;;;6244782;23;20071;-83
2023/09/05 14:47:54;;;;;;;6.05;4.75;;;;;;;;;;6244982;23;20016;-83
2023/09/05 14:50:21;;;;;;;5.70;4.88;;;;;;;;;;6217506;23;20518;-83
2023/09/05 14:52:47;;;;;;;5.80;4.65;;;;;;;;;;6217460;23;20016;-83
2023/09/05 14:55:13;;;;;;;4.72;3.97;;;;;;;;;;6244121;23;20039;-83
2023/09/05 14:57:39;;;;;;;5.95;4.40;;;;;;;;;;6244432;22;20448;-83
2023/09/05 15:00:07;;;;;;;6.00;4.68;;;;;;;;;;6217124;23;20383;-84
2023/09/05 15:02:33;;;;;;;8.38;4.80;;;;;;;;;;6217548;23;20012;-85
2023/09/05 15:04:59;;;;;;;7.78;4.30;;;;;;;;;;6192871;23;20483;-83
2023/09/05 15:07:25;;;;;;;4.97;4.47;;;;;;;;;;6244768;23;20027;-83
2023/09/05 15:09:52;;;;;;;5.13;4.03;;;;;;;;;;6217082;23;20392;-83
2023/09/05 15:12:18;;;;;;;7.35;4.78;;;;;;;;;;6245245;23;20455;-82
2023/09/05 15:14:44;;;;;;;6.53;4.35;;;;;;;;;;6217570;23;20347;-82
2023/09/05 15:17:10;;;;;;;6.25;4.75;;;;;;;;;;6244217;23;20093;-83
2023/09/05 15:19:36;;;;;;;8.90;4.75;;;;;;;;;;6192535;23;20050;-83
2023/09/05 15:22:06;;;;;;;4.38;3.90;;;;;;;;;;6218546;23;20024;-83
2023/09/05 15:24:33;;;;;;;6.47;4.65;;;;;;;;;;6219661;23;20391;-83
2023/09/05 15:26:59;;;;;;;8.05;4.78;;;;;;;;;;6245265;23;20016;-83
2023/09/05 15:29:25;;;;;;;6.78;4.25;;;;;;;;;;6220079;23;20016;-83
2023/09/05 15:31:52;;;;;;;5.32;3.83;;;;;;;;;;6195403;23;20416;-83
2023/09/05 15:34:18;;;;;;;6.25;4.05;;;;;;;;;;6220222;23;20031;-83
2023/09/05 15:36:45;;;;;;;6.38;4.32;;;;;;;;;;6219578;23;20016;-83
2023/09/05 15:39:11;;;;;;;6.50;4.20;;;;;;;;;;6194290;23;20074;-84
2023/09/05 15:41:37;;;;;;;5.20;4.28;;;;;;;;;;6220421;23;20444;-84
2023/09/05 15:44:04;;;;;;;7.25;4.40;;;;;;;;;;6246304;23;20039;-84
2023/09/05 15:46:34;;;;;;;5.80;4.40;;;;;;;;;;6194640;23;20101;-84
2023/09/05 15:49:07;;;;;;;7.80;4.50;;;;;;;;;;6195344;23;20439;-84
2023/09/05 15:51:33;;;;;;;5.78;4.20;;;;;;;;;;6197024;23;20431;-85
2023/09/05 15:53:59;;;;;;;6.10;4.70;;;;;;;;;;6195156;23;20099;-84
2023/09/05 15:56:26;;;;;;;6.78;4.07;;;;;;;;;;6220728;23;20027;-83
2023/09/05 15:58:53;;;;;;;7.18;4.47;;;;;;;;;;6219977;23;20385;-83
2023/09/05 16:01:19;;;;;;;33.05;6.93;;;;;;;;;;6246645;23;20051;-83
2023/09/05 16:03:45;;;;;;;20.10;11.02;;;;;;;;;;6218735;23;20448;-83
2023/09/05 16:06:11;;;;;;;19.92;12.07;;;;;;;;;;6219726;23;20023;-83
2023/09/05 16:08:37;;;;;;;22.45;12.80;;;;;;;;;;6194511;23;20020;-83
2023/09/05 16:11:16;;;;;;;15.00;8.63;;;;;;;;;;6195055;23;20347;-83
2023/09/05 16:13:43;;;;;;;15.85;8.55;;;;;;;;;;6219132;23;20369;-83
2023/09/05 16:16:11;;;;;;;17.20;9.65;;;;;;;;;;6219529;23;20022;-83
2023/09/05 16:18:37;;;;;;;16.13;9.63;;;;;;;;;;6246099;23;20451;-84
2023/09/05 16:21:04;;;;;;;15.93;9.10;;;;;;;;;;6219232;23;20054;-84
2023/09/05 16:23:31;;;;;;;16.63;9.60;;;;;;;;;;6245697;23;20016;-84
2023/09/05 16:25:59;;;;;;;17.95;9.63;;;;;;;;;;6219757;23;20095;-84
2023/09/05 16:28:26;;;;;;;15.68;9.50;;;;;;;;;;6219860;23;20020;-84
2023/09/05 16:30:55;;;;;;;13.13;8.30;;;;;;;;;;6194599;23;20436;-84
2023/09/05 16:33:22;;;;;;;11.93;7.60;;;;;;;;;;6218951;23;20406;-84
2023/09/05 16:35:48;;;;;;;6.85;5.47;;;;;;;;;;6219439;23;20466;-84
2023/09/05 16:38:14;;;;;;;7.07;5.30;;;;;;;;;;6194580;23;20480;-85
2023/09/05 16:40:40;;;;;;;7.78;4.47;;;;;;;;;;6194621;23;20024;-86
2023/09/05 16:43:06;;;;;;;6.47;4.93;;;;;;;;;;6193992;23;20369;-85
2023/09/05 16:45:32;;;;;;;6.20;4.88;;;;;;;;;;6194169;23;20016;-85
2023/09/05 16:48:00;;;;;;;6.18;4.80;;;;;;;;;;6246451;23;20017;-85
2023/09/05 16:50:26;;;;;;;7.85;5.07;;;;;;;;;;6219705;23;20054;-84
2023/09/05 16:52:52;;;;;;;7.20;5.00;;;;;;;;;;6219887;23;20103;-85
2023/09/05 16:55:18;;;;;;;8.65;4.90;;;;;;;;;;6195096;23;20016;-85
2023/09/05 16:57:45;;;;;;;6.72;4.88;;;;;;;;;;6193906;23;20027;-85
2023/09/05 17:00:12;;;;;;;6.00;4.80;;;;;;;;;;6219044;23;20016;-84
2023/09/05 17:02:38;;;;;;;7.18;4.97;;;;;;;;;;6219533;23;20078;-84
2023/09/05 17:05:04;;;;;;;8.80;4.97;;;;;;;;;;6218694;23;20020;-84
2023/09/05 17:07:30;;;;;;;5.07;4.38;;;;;;;;;;6194624;23;20027;-84
2023/09/05 17:09:56;;;;;;;9.55;4.90;;;;;;;;;;6194363;23;20104;-85
2023/09/05 17:12:22;;;;;;;7.55;4.93;;;;;;;;;;6195137;23;20431;-85
2023/09/05 17:14:51;;;;;;;8.60;5.10;;;;;;;;;;6193538;23;20089;-85
2023/09/05 17:17:17;;;;;;;6.70;4.28;;;;;;;;;;6193762;23;20016;-85
2023/09/05 17:19:45;;;;;;;6.22;4.82;;;;;;;;;;6219807;23;20034;-85
2023/09/05 17:22:11;;;;;;;7.05;5.15;;;;;;;;;;6247236;23;20083;-84
2023/09/05 17:24:38;;;;;;;10.05;5.45;;;;;;;;;;6219339;23;20042;-84
2023/09/05 17:27:04;;;;;;;7.45;5.30;;;;;;;;;;6194150;23;20435;-85
2023/09/05 17:29:31;;;;;;;6.63;5.00;;;;;;;;;;6194268;23;20024;-85
2023/09/05 17:31:57;;;;;;;7.32;5.18;;;;;;;;;;6219251;23;20024;-85
2023/09/05 17:34:23;;;;;;;6.18;5.25;;;;;;;;;;6246008;23;20012;-85
2023/09/05 17:36:49;;;;;;;9.65;5.20;;;;;;;;;;6219413;23;20066;-86
2023/09/05 17:39:15;;;;;;;7.85;5.57;;;;;;;;;;6245837;23;20046;-85
2023/09/05 17:41:41;;;;;;;6.55;5.43;;;;;;;;;;6194340;23;20089;-85
2023/09/05 17:44:07;;;;;;;7.53;5.45;;;;;;;;;;6218835;23;20023;-85
2023/09/05 17:46:33;;;;;;;7.85;5.18;;;;;;;;;;6218780;23;20459;-86
2023/09/05 17:48:59;;;;;;;8.27;5.43;;;;;;;;;;6245424;23;20023;-85
2023/09/05 17:51:25;;;;;;;8.25;5.20;;;;;;;;;;6219069;23;20024;-85
2023/09/05 17:53:51;;;;;;;6.05;5.20;;;;;;;;;;6193438;23;20027;-85
2023/09/05 17:56:20;;;;;;;8.07;4.88;;;;;;;;;;6230660;22;20016;-87
2023/09/05 17:58:46;;;;;;;5.18;4.68;;;;;;;;;;6118600;23;20021;-88
2023/09/05 18:01:13;;;;;;;6.57;5.13;;;;;;;;;;6129131;23;20053;-88
2023/09/05 18:03:41;;;;;;;6.45;5.40;;;;;;;;;;6131585;23;20040;-88
2023/09/05 18:06:10;;;;;;;6.78;5.55;;;;;;;;;;6135324;23;20071;-87
2023/09/05 18:08:43;;;;;;;7.88;5.22;;;;;;;;;;6159224;23;20028;-88
2023/09/05 18:11:09;;;;;;;6.20;5.53;;;;;;;;;;6159443;23;20017;-88
2023/09/05 18:13:35;;;;;;;7.43;5.55;;;;;;;;;;6135489;23;20017;-88
2023/09/05 18:16:02;;;;;;;5.85;5.10;;;;;;;;;;6160269;23;20017;-88
2023/09/05 18:18:28;;;;;;;6.05;5.20;;;;;;;;;;6135380;23;20344;-88
2023/09/05 18:20:55;;;;;;;7.68;5.32;;;;;;;;;;6135571;23;20118;-87
2023/09/05 18:23:21;;;;;;;7.18;5.35;;;;;;;;;;6160326;23;20033;-87
2023/09/05 18:25:49;;;;;;;6.40;5.20;;;;;;;;;;6135505;23;20036;-87
2023/09/05 18:28:16;;;;;;;6.05;5.45;;;;;;;;;;6160121;23;20017;-88
2023/09/05 18:30:42;;;;;;;7.10;5.53;;;;;;;;;;6135572;23;20013;-87
2023/09/05 18:33:08;;;;;;;8.55;6.00;;;;;;;;;;6159774;23;20017;-87
2023/09/05 18:35:35;;;;;;;8.40;5.55;;;;;;;;;;6160014;23;20021;-88
2023/09/05 18:38:01;;;;;;;7.75;5.68;;;;;;;;;;6159511;23;20017;-89
2023/09/05 18:40:27;;;;;;;8.07;5.50;;;;;;;;;;6159916;23;20124;-88
2023/09/05 18:42:53;;;;;;;6.82;5.82;;;;;;;;;;6159524;23;20017;-89
2023/09/05 18:45:19;;;;;;;8.10;5.35;;;;;;;;;;6158944;23;20044;-88
2023/09/05 18:47:45;;;;;;;6.53;5.45;;;;;;;;;;6161397;23;20068;-89
2023/09/05 18:50:13;;;;;;;6.50;5.75;;;;;;;;;;6136586;23;20052;-88
2023/09/05 18:52:39;;;;;;;6.50;5.32;;;;;;;;;;6160468;23;20101;-88
2023/09/05 18:55:06;;;;;;;8.00;6.10;;;;;;;;;;6137292;23;20017;-89
2023/09/05 18:57:32;;;;;;;7.20;5.57;;;;;;;;;;6136869;23;20088;-88
2023/09/05 18:59:58;;;;;;;7.55;6.18;;;;;;;;;;6160649;23;20017;-87
2023/09/05 19:02:27;;;;;;;6.78;6.07;;;;;;;;;;6189170;23;20429;-87
2023/09/05 19:04:54;;;;;;;8.60;6.28;;;;;;;;;;6161148;23;20025;-87
2023/09/05 19:07:20;;;;;;;8.20;5.88;;;;;;;;;;6160221;23;20024;-87
2023/09/05 19:09:46;;;;;;;6.68;5.97;;;;;;;;;;6161602;23;20027;-86
2023/09/05 19:12:13;;;;;;;8.18;6.43;;;;;;;;;;6188633;23;20340;-86
2023/09/05 19:14:39;;;;;;;8.43;6.22;;;;;;;;;;6162177;23;20021;-87
2023/09/05 19:17:05;;;;;;;8.38;6.95;;;;;;;;;;6162681;23;20019;-87
2023/09/05 19:19:34;;;;;;;7.80;6.75;;;;;;;;;;6162170;23;20088;-87
2023/09/05 19:22:02;;;;;;;7.18;6.47;;;;;;;;;;6161068;23;20099;-86
2023/09/05 19:24:28;;;;;;;9.93;6.10;;;;;;;;;;6160988;23;20372;-86
2023/09/05 19:26:55;;;;;;;7.95;6.40;;;;;;;;;;6137290;23;20028;-87
2023/09/05 19:29:21;;;;;;;7.80;6.38;;;;;;;;;;6137229;23;20021;-87
2023/09/05 19:31:47;;;;;;;7.72;6.75;;;;;;;;;;6162184;23;20080;-87
2023/09/05 19:34:15;;;;;;;7.78;6.30;;;;;;;;;;6161496;23;20352;-87
2023/09/05 19:36:41;;;;;;;10.13;6.30;;;;;;;;;;6160713;23;20021;-87
2023/09/05 19:39:29;;;;;;;;;;;;;;;;;;;;;
2023/09/05 19:42:17;;;;;;;7.43;6.25;;;;;;;;;;6187292;23;20428;-87
2023/09/05 19:48:00;;;;;;;8.48;6.72;;;;;;;;;;6121037;23;20022;-86
2023/09/05 19:50:50;;;;;;;6.70;6.00;;;;;;;;;;6126384;23;20018;-86
2023/09/05 19:53:30;;;;;;;8.50;5.88;;;;;;;;;;6125491;23;20014;-87
2023/09/05 19:56:05;;;;;;;8.57;6.80;;;;;;;;;;6130702;23;20459;-87
2023/09/05 19:58:33;;;;;;;7.18;6.20;;;;;;;;;;6128745;23;20022;-86
2023/09/05 20:00:59;;;;;;;7.72;6.38;;;;;;;;;;6129169;23;20370;-86
2023/09/05 20:03:26;;;;;;;7.25;6.20;;;;;;;;;;6128969;23;20145;-87
2023/09/05 20:05:56;;;;;;;8.02;6.47;;;;;;;;;;6129269;23;20018;-87
2023/09/05 20:08:22;;;;;;;9.38;6.68;;;;;;;;;;6129752;23;20013;-88
2023/09/05 20:10:50;;;;;;;9.25;6.60;;;;;;;;;;6129590;23;20021;-87
2023/09/05 20:13:16;;;;;;;7.18;6.47;;;;;;;;;;6129846;23;20353;-88
2023/09/05 20:15:42;;;;;;;8.23;6.72;;;;;;;;;;6144619;23;20501;-85
2023/09/05 20:18:08;;;;;;;8.50;6.90;;;;;;;;;;6160058;23;20106;-84
2023/09/05 20:20:35;;;;;;;8.65;6.85;;;;;;;;;;6135385;23;20048;-85
2023/09/05 20:30:17;;;;;;;7.00;6.30;;;;;;;;;;6095705;23;20045;-86
2023/09/05 20:56:09;;;;;;;8.60;7.70;;;;;;;;;;5898558;24;20036;-86
2023/09/05 21:06:18;;;;;;;9.90;8.90;;;;;;;;;;6028233;23;20103;-86
2023/09/05 21:09:35;;;;;;;;;;;;;;;;;;;;;
2023/09/05 21:13:04;;;;;;;;;;;;;;;;;;;;;
2023/09/05 21:54:11;;;;;;;15.63;13.95;;;;;;;;;;6008362;23;20072;-88
2023/09/05 21:56:37;;;;;;;19.80;15.98;;;;;;;;;;5997790;23;20468;-87
2023/09/05 21:59:04;;;;;;;20.98;18.27;;;;;;;;;;6105607;23;20024;-87
2023/09/05 22:01:30;;;;;;;22.45;16.90;;;;;;;;;;6121186;23;20017;-87
2023/09/05 22:03:57;;;;;;;18.17;15.88;;;;;;;;;;6159483;23;20021;-86
2023/09/05 22:06:23;;;;;;;21.85;17.75;;;;;;;;;;6159741;23;20023;-86
2023/09/05 22:08:49;;;;;;;22.92;19.20;;;;;;;;;;6159318;23;20020;-86
2023/09/05 22:11:15;;;;;;;21.08;18.13;;;;;;;;;;6159038;23;20112;-87
2023/09/05 22:13:41;;;;;;;24.00;20.65;;;;;;;;;;6159635;23;20092;-87
2023/09/05 22:16:08;;;;;;;25.75;21.13;;;;;;;;;;6158844;23;20021;-87
2023/09/05 22:18:34;;;;;;;26.85;23.20;;;;;;;;;;6158698;23;20040;-87
2023/09/05 22:21:01;;;;;;;30.48;25.75;;;;;;;;;;6159073;23;20067;-87
2023/09/05 22:31:20;;;;;;;35.90;27.48;;;;;;;;;;6068752;23;20470;-86
2023/09/05 22:33:46;;;;;;;38.05;29.38;;;;;;;;;;6033211;23;20017;-85
2023/09/05 22:36:12;;;;;;;32.30;27.95;;;;;;;;;;6102143;23;20450;-86
2023/09/05 22:38:39;;;;;;;37.00;29.23;;;;;;;;;;6102023;23;20056;-86
2023/09/05 22:48:24;;;;;;;36.33;29.58;;;;;;;;;;5873139;24;20120;-87
2023/09/05 22:51:32;;;;;;;43.40;33.45;;;;;;;;;;5813112;24;20474;-87
2023/09/05 23:29:37;;;;;;;29.60;25.13;;;;;;;;;;6002021;23;20083;-86
2023/09/05 23:32:27;;;;;;;31.67;25.40;;;;;;;;;;6047577;23;20018;-86
2023/09/05 23:35:05;;;;;;;;;;;;;;;;;;6046132;23;20015;-86
2023/09/05 23:44:12;;;;;;;33.28;27.52;;;;;;;;;;6042491;23;20471;-86
